createdAt,value
2022-12-26T00:01:00.123Z,4.73
2022-12-26T00:03:30.551Z,4.33
2022-12-26T00:06:00.312Z,3.73
2022-12-26T00:08:28.533Z,4.27
2022-12-26T00:10:56.786Z,3.80
2022-12-26T00:13:39.875Z,4.30
2022-12-26T00:16:09.752Z,4.27
2022-12-26T00:18:38.080Z,5.53
2022-12-26T00:21:08.058Z,3.90
2022-12-26T00:23:36.767Z,4.20
2022-12-26T00:26:05.275Z,4.67
2022-12-26T00:28:33.680Z,3.70
2022-12-26T00:31:05.172Z,3.20
2022-12-26T00:33:33.471Z,3.93
2022-12-26T00:36:03.279Z,3.67
2022-12-26T00:38:32.886Z,3.63
2022-12-26T00:41:01.058Z,3.63
2022-12-26T00:43:29.475Z,3.80
2022-12-26T00:45:57.747Z,3.70
2022-12-26T00:48:26.134Z,4.00
2022-12-26T00:50:54.397Z,2.97
2022-12-26T00:53:22.683Z,3.90
2022-12-26T00:55:52.551Z,3.30
2022-12-26T00:58:21.108Z,3.30
2022-12-26T01:00:49.630Z,3.60
2022-12-26T01:03:18.321Z,3.77
2022-12-26T01:05:47.520Z,3.90
2022-12-26T01:08:22.764Z,4.87
2022-12-26T01:10:54.285Z,4.20
2022-12-26T01:13:22.602Z,3.03
2022-12-26T01:15:51.735Z,3.00
2022-12-26T01:18:20.324Z,2.60
2022-12-26T01:20:48.597Z,3.30
2022-12-26T01:23:17.641Z,3.70
2022-12-26T01:26:18.986Z,3.43
2022-12-26T01:28:35.508Z,3.50
2022-12-26T01:31:04.618Z,3.13
2022-12-26T01:33:32.841Z,3.23
2022-12-26T01:36:01.248Z,3.40
2022-12-26T01:38:29.508Z,3.50
2022-12-26T01:41:11.634Z,3.53
2022-12-26T01:43:52.395Z,3.00
2022-12-26T01:46:22.040Z,3.47
2022-12-26T01:48:50.585Z,3.37
2022-12-26T01:51:20.468Z,3.30
2022-12-26T01:53:49.701Z,3.40
2022-12-26T01:56:20.042Z,3.40
2022-12-26T01:58:50.403Z,3.13
2022-12-26T02:01:20.825Z,3.43
2022-12-26T02:04:07.532Z,4.17
2022-12-26T02:06:36.512Z,3.50
2022-12-26T02:09:05.163Z,3.13
2022-12-26T02:11:35.093Z,3.93
2022-12-26T02:14:03.563Z,3.50
2022-12-26T02:16:34.432Z,3.27
2022-12-26T02:19:02.785Z,4.50
2022-12-26T02:21:40.739Z,3.53
2022-12-26T02:24:30.874Z,3.13
2022-12-26T02:27:10.369Z,3.20
2022-12-26T02:29:57.463Z,3.90
2022-12-26T02:32:32.612Z,3.30
2022-12-26T02:35:06.903Z,3.53
2022-12-26T02:37:40.355Z,3.10
2022-12-26T02:40:19.546Z,3.60
2022-12-26T02:42:52.003Z,3.33
2022-12-26T02:45:46.850Z,3.17
2022-12-26T02:48:21.654Z,2.83
2022-12-26T02:51:12.400Z,3.27
2022-12-26T02:54:01.085Z,3.97
2022-12-26T02:56:58.611Z,3.00
2022-12-26T02:59:55.927Z,3.27
2022-12-26T03:02:46.148Z,3.70
2022-12-26T03:05:35.873Z,3.33
2022-12-26T03:08:23.779Z,3.87
2022-12-26T03:11:11.129Z,3.53
2022-12-26T03:13:40.580Z,3.83
2022-12-26T03:16:28.511Z,3.83
2022-12-26T03:19:00.622Z,4.00
2022-12-26T03:21:32.187Z,3.67
2022-12-26T03:24:00.383Z,3.60
2022-12-26T03:26:42.059Z,3.43
2022-12-26T03:29:29.580Z,3.27
2022-12-26T03:31:57.914Z,3.73
2022-12-26T03:34:26.234Z,3.73
2022-12-26T03:37:03.010Z,3.53
2022-12-26T03:39:49.451Z,4.23
2022-12-26T03:42:39.292Z,3.40
2022-12-26T03:45:35.229Z,3.43
2022-12-26T03:48:24.795Z,4.30
2022-12-26T03:51:13.955Z,2.30
2022-12-26T03:54:04.096Z,2.27
2022-12-26T03:56:53.073Z,2.13
2022-12-26T03:59:40.384Z,2.00
2022-12-26T04:02:27.019Z,2.80
2022-12-26T04:05:14.342Z,2.80
2022-12-26T04:07:59.060Z,1.87
2022-12-26T04:10:48.789Z,2.70
2022-12-26T04:13:37.915Z,2.50
2022-12-26T04:16:24.953Z,2.40
2022-12-26T04:19:15.091Z,2.90
2022-12-26T04:22:04.278Z,2.77
2022-12-26T04:24:52.869Z,2.83
2022-12-26T04:27:41.585Z,2.60
2022-12-26T04:30:27.886Z,3.07
2022-12-26T04:33:15.353Z,4.33
2022-12-26T04:36:04.392Z,3.10
2022-12-26T04:38:53.638Z,2.50
2022-12-26T04:41:40.175Z,2.70
2022-12-26T04:44:11.877Z,2.40
2022-12-26T04:46:41.219Z,2.17
2022-12-26T04:49:27.646Z,2.10
2022-12-26T04:51:56.754Z,2.10
2022-12-26T04:54:25.080Z,2.13
2022-12-26T04:56:53.734Z,2.63
2022-12-26T04:59:24.142Z,2.27
2022-12-26T05:02:10.479Z,2.40
2022-12-26T05:04:56.298Z,2.73
2022-12-26T05:07:43.373Z,2.40
2022-12-26T05:10:15.000Z,3.00
2022-12-26T05:12:43.267Z,2.53
2022-12-26T05:15:13.161Z,2.60
2022-12-26T05:17:58.981Z,2.93
2022-12-26T05:20:44.238Z,3.00
2022-12-26T05:23:33.551Z,2.30
2022-12-26T05:26:19.463Z,2.40
2022-12-26T05:28:50.176Z,2.07
2022-12-26T05:31:19.762Z,2.13
2022-12-26T05:34:05.865Z,2.07
2022-12-26T05:36:37.924Z,2.20
2022-12-26T05:39:06.752Z,1.60
2022-12-26T05:41:34.961Z,1.40
2022-12-26T05:44:03.292Z,1.70
2022-12-26T05:46:33.025Z,1.57
2022-12-26T05:49:01.360Z,1.37
2022-12-26T05:51:29.535Z,1.70
2022-12-26T05:53:57.783Z,1.40
2022-12-26T05:56:26.055Z,1.33
2022-12-26T05:58:57.842Z,1.23
2022-12-26T06:01:26.728Z,1.20
2022-12-26T06:03:57.518Z,1.77
2022-12-26T06:06:26.229Z,1.23
2022-12-26T06:08:55.092Z,1.10
2022-12-26T06:11:24.682Z,1.33
2022-12-26T06:13:52.865Z,1.10
2022-12-26T06:16:21.356Z,1.23
2022-12-26T06:18:49.887Z,0.90
2022-12-26T06:21:20.519Z,1.27
2022-12-26T06:23:49.038Z,0.90
2022-12-26T06:26:18.063Z,0.90
2022-12-26T06:28:47.516Z,1.10
2022-12-26T06:31:17.056Z,1.00
2022-12-26T06:33:45.359Z,0.93
2022-12-26T06:36:14.712Z,1.00
2022-12-26T06:38:44.822Z,0.97
2022-12-26T06:41:13.926Z,1.10
2022-12-26T06:43:42.154Z,1.00
2022-12-26T06:46:12.397Z,1.03
2022-12-26T06:48:40.797Z,0.97
2022-12-26T06:51:10.007Z,1.20
2022-12-26T06:53:38.455Z,1.57
2022-12-26T06:56:09.002Z,1.10
2022-12-26T06:58:37.614Z,1.67
2022-12-26T07:01:06.485Z,1.40
2022-12-26T07:03:34.805Z,1.77
2022-12-26T07:06:06.707Z,1.87
2022-12-26T07:08:35.200Z,1.77
2022-12-26T07:11:03.399Z,1.77
2022-12-26T07:13:32.918Z,1.73
2022-12-26T07:16:01.464Z,1.83
2022-12-26T07:18:29.764Z,2.10
2022-12-26T07:20:58.011Z,1.73
2022-12-26T07:23:26.242Z,2.87
2022-12-26T07:25:54.457Z,2.70
2022-12-26T07:28:22.641Z,2.77
2022-12-26T07:30:52.575Z,2.80
2022-12-26T07:33:20.837Z,3.30
2022-12-26T07:35:49.119Z,3.50
2022-12-26T07:38:17.328Z,3.50
2022-12-26T07:40:45.574Z,3.10
2022-12-26T07:43:13.794Z,2.70
2022-12-26T07:45:45.887Z,2.80
2022-12-26T07:48:15.697Z,3.13
2022-12-26T07:50:47.168Z,3.13
2022-12-26T07:53:15.699Z,3.60
2022-12-26T07:55:44.143Z,3.03
2022-12-26T07:58:12.415Z,3.37
2022-12-26T08:00:40.740Z,3.03
2022-12-26T08:03:11.079Z,4.07
2022-12-26T08:05:41.354Z,2.53
2022-12-26T08:08:09.575Z,3.77
2022-12-26T08:10:37.857Z,2.30
2022-12-26T08:13:06.081Z,3.53
2022-12-26T08:15:34.535Z,3.23
2022-12-26T08:18:02.772Z,2.50
2022-12-26T08:20:31.054Z,2.47
2022-12-26T08:23:00.783Z,2.50
2022-12-26T08:25:29.196Z,2.87
2022-12-26T08:27:57.509Z,2.37
2022-12-26T08:30:25.898Z,2.80
2022-12-26T08:32:54.223Z,2.73
2022-12-26T08:35:22.549Z,2.70
2022-12-26T08:37:50.774Z,2.40
2022-12-26T08:40:39.924Z,2.80
2022-12-26T08:46:00.808Z,2.20
2022-12-26T08:48:29.132Z,2.50
2022-12-26T08:50:58.302Z,1.93
2022-12-26T08:53:26.606Z,2.60
2022-12-26T08:55:56.262Z,2.23
2022-12-26T08:58:24.717Z,2.60
2022-12-26T09:00:55.373Z,2.50
2022-12-26T09:03:23.965Z,2.97
2022-12-26T09:05:52.256Z,2.57
2022-12-26T09:08:20.516Z,2.90
2022-12-26T09:10:48.724Z,2.43
2022-12-26T09:13:19.706Z,2.60
2022-12-26T09:15:48.193Z,2.57
2022-12-26T09:18:16.404Z,2.27
2022-12-26T09:20:44.666Z,2.60
2022-12-26T09:23:15.311Z,2.50
2022-12-26T09:25:43.559Z,2.23
2022-12-26T09:28:11.834Z,2.40
2022-12-26T09:30:41.457Z,2.50
2022-12-26T09:33:09.748Z,2.23
2022-12-26T09:35:41.067Z,2.37
2022-12-26T09:38:09.688Z,2.47
2022-12-26T09:40:43.487Z,2.07
2022-12-26T09:43:18.953Z,2.10
2022-12-26T09:45:53.947Z,1.90
2022-12-26T09:48:26.116Z,2.47
2022-12-26T09:50:54.574Z,1.67
2022-12-26T09:53:27.502Z,2.37
2022-12-26T09:55:57.834Z,2.10
2022-12-26T09:58:28.378Z,1.97
2022-12-26T10:01:03.362Z,1.70
2022-12-26T10:03:32.201Z,1.53
2022-12-26T10:06:09.239Z,3.00
2022-12-26T10:09:01.186Z,1.80
2022-12-26T10:11:36.274Z,2.03
2022-12-26T10:14:06.718Z,2.57
2022-12-26T10:16:42.097Z,2.27
2022-12-26T10:19:15.625Z,2.50
2022-12-26T10:21:50.322Z,1.90
2022-12-26T10:24:20.206Z,2.27
2022-12-26T10:26:50.531Z,2.00
2022-12-26T10:29:21.817Z,2.40
2022-12-26T10:31:52.627Z,2.20
2022-12-26T10:34:23.730Z,2.60
2022-12-26T10:36:52.640Z,1.97
2022-12-26T10:39:23.259Z,2.30
2022-12-26T10:41:52.989Z,2.03
2022-12-26T10:44:27.325Z,2.30
2022-12-26T10:47:07.157Z,1.60
2022-12-26T10:49:35.412Z,1.30
2022-12-26T10:52:04.748Z,2.50
2022-12-26T10:54:32.971Z,2.40
2022-12-26T10:57:01.518Z,1.50
2022-12-26T10:59:36.964Z,1.87
2022-12-26T11:02:15.257Z,2.60
2022-12-26T11:05:32.781Z,1.77
2022-12-26T11:07:49.354Z,2.70
2022-12-26T11:10:19.913Z,2.47
2022-12-26T11:12:50.387Z,1.87
2022-12-26T11:15:20.535Z,1.70
2022-12-26T11:17:51.631Z,2.43
2022-12-26T11:20:24.307Z,1.40
2022-12-26T11:22:52.790Z,1.00
2022-12-26T11:25:22.563Z,2.43
2022-12-26T11:27:52.777Z,2.17
2022-12-26T11:30:23.487Z,1.33
2022-12-26T11:33:05.938Z,1.60
2022-12-26T11:35:39.799Z,1.50
2022-12-26T11:38:09.559Z,1.50
2022-12-26T11:40:38.828Z,1.50
2022-12-26T11:43:08.216Z,2.50
2022-12-26T11:45:40.590Z,1.60
2022-12-26T11:48:19.445Z,1.90
2022-12-26T11:50:48.342Z,1.60
2022-12-26T11:53:18.503Z,2.23
2022-12-26T11:55:47.323Z,2.37
2022-12-26T11:58:19.246Z,2.50
2022-12-26T12:01:02.323Z,3.80
2022-12-26T12:03:33.395Z,4.33
2022-12-26T12:06:04.670Z,3.77
2022-12-26T12:08:39.411Z,2.17
2022-12-26T12:11:12.332Z,2.40
2022-12-26T12:13:53.681Z,2.20
2022-12-26T12:16:32.746Z,2.50
2022-12-26T12:19:05.157Z,2.13
2022-12-26T12:21:37.575Z,2.00
2022-12-26T12:24:19.039Z,2.17
2022-12-26T12:26:57.564Z,1.93
2022-12-26T12:29:33.853Z,2.43
2022-12-26T12:32:09.236Z,2.10
2022-12-26T12:34:48.516Z,2.00
2022-12-26T12:37:22.602Z,1.93
2022-12-26T12:40:04.005Z,2.80
2022-12-26T12:42:39.268Z,1.60
2022-12-26T12:45:27.755Z,3.57
2022-12-26T12:48:04.242Z,3.10
2022-12-26T12:50:36.789Z,2.50
2022-12-26T12:53:09.959Z,2.67
2022-12-26T12:55:45.731Z,2.40
2022-12-26T12:58:18.798Z,2.37
2022-12-26T13:00:48.653Z,2.80
2022-12-26T13:03:20.889Z,1.77
2022-12-26T13:05:54.521Z,2.87
2022-12-26T13:08:24.408Z,2.70
2022-12-26T13:10:54.583Z,1.57
2022-12-26T13:13:26.996Z,1.80
2022-12-26T13:15:57.992Z,1.30
2022-12-26T13:18:29.418Z,1.70
2022-12-26T13:21:01.536Z,1.67
2022-12-26T13:23:54.807Z,1.53
2022-12-26T13:26:25.300Z,1.40
2022-12-26T13:28:56.364Z,2.27
2022-12-26T13:31:24.639Z,2.00
2022-12-26T13:33:53.033Z,2.17
2022-12-26T13:36:43.294Z,1.50
2022-12-26T13:39:35.704Z,1.47
2022-12-26T13:42:24.633Z,1.50
2022-12-26T13:44:53.620Z,1.80
2022-12-26T13:47:36.992Z,1.90
2022-12-26T13:50:23.845Z,2.30
2022-12-26T13:52:53.940Z,2.00
2022-12-26T13:55:44.792Z,1.93
2022-12-26T13:58:27.552Z,1.80
2022-12-26T14:00:58.155Z,1.70
2022-12-26T14:03:42.388Z,1.43
2022-12-26T14:06:28.346Z,1.40
2022-12-26T14:09:11.665Z,1.77
2022-12-26T14:11:48.130Z,1.23
2022-12-26T14:14:22.414Z,1.23
2022-12-26T14:16:53.538Z,1.40
2022-12-26T14:19:38.036Z,1.47
2022-12-26T14:22:10.707Z,1.63
2022-12-26T14:24:45.618Z,2.17
2022-12-26T14:27:25.597Z,1.70
2022-12-26T14:29:59.719Z,1.50
2022-12-26T14:32:33.745Z,1.53
2022-12-26T14:35:06.494Z,1.60
2022-12-26T14:37:42.823Z,1.20
2022-12-26T14:40:24.567Z,1.60
2022-12-26T14:43:10.651Z,1.30
2022-12-26T14:45:41.523Z,1.63
2022-12-26T14:48:27.870Z,1.53
2022-12-26T14:50:56.641Z,1.87
2022-12-26T14:53:35.333Z,1.50
2022-12-26T14:56:05.635Z,1.27
2022-12-26T14:58:41.962Z,1.37
2022-12-26T15:01:28.889Z,1.37
2022-12-26T15:03:59.687Z,1.83
2022-12-26T15:06:42.794Z,2.10
2022-12-26T15:09:16.018Z,1.70
2022-12-26T15:12:02.174Z,1.17
2022-12-26T15:14:49.436Z,1.90
2022-12-26T15:17:21.851Z,2.80
2022-12-26T15:20:09.387Z,1.47
2022-12-26T15:22:58.304Z,1.70
2022-12-26T15:25:53.875Z,1.80
2022-12-26T15:28:52.070Z,2.20
2022-12-26T15:31:38.294Z,1.13
2022-12-26T15:34:26.683Z,1.70
2022-12-26T15:36:56.435Z,1.67
2022-12-26T15:39:28.692Z,1.80
2022-12-26T15:42:00.281Z,2.00
2022-12-26T15:44:30.269Z,1.80
2022-12-26T15:47:05.401Z,1.93
2022-12-26T15:49:40.655Z,1.90
2022-12-26T15:52:12.593Z,1.90
2022-12-26T15:54:51.827Z,3.17
2022-12-26T15:57:21.444Z,1.57
2022-12-26T15:59:56.996Z,1.90
2022-12-26T16:02:33.594Z,1.80
2022-12-26T16:05:13.427Z,2.10
2022-12-26T16:07:44.999Z,1.70
2022-12-26T16:10:28.303Z,1.43
2022-12-26T16:12:59.205Z,1.67
2022-12-26T16:15:27.710Z,1.83
2022-12-26T16:17:55.888Z,1.67
2022-12-26T16:20:49.758Z,1.63
2022-12-26T16:23:19.114Z,1.53
2022-12-26T16:25:48.213Z,2.90
2022-12-26T16:28:16.645Z,1.70
2022-12-26T16:30:45.017Z,1.63
2022-12-26T16:33:14.095Z,1.57
2022-12-26T16:35:44.037Z,1.80
2022-12-26T16:38:14.625Z,1.87
2022-12-26T16:40:44.325Z,1.70
2022-12-26T16:43:25.247Z,2.47
2022-12-26T16:45:54.440Z,2.50
2022-12-26T16:48:23.745Z,2.00
2022-12-26T16:50:54.594Z,1.87
2022-12-26T16:53:23.759Z,2.43
2022-12-26T16:55:53.608Z,1.73
2022-12-26T16:58:23.630Z,2.07
2022-12-26T17:00:56.568Z,2.00
2022-12-26T17:03:27.882Z,2.27
2022-12-26T17:05:57.577Z,2.27
2022-12-26T17:08:25.980Z,2.30
2022-12-26T17:10:54.620Z,1.90
2022-12-26T17:13:24.375Z,2.90
2022-12-26T17:15:54.525Z,1.70
2022-12-26T17:18:42.940Z,1.80
2022-12-26T17:21:32.046Z,1.97
2022-12-26T17:24:15.229Z,2.17
2022-12-26T17:26:45.532Z,2.37
2022-12-26T17:29:34.128Z,2.50
2022-12-26T17:32:02.480Z,3.07
2022-12-26T17:34:30.740Z,3.63
2022-12-26T17:37:20.276Z,2.97
2022-12-26T17:39:54.307Z,2.80
2022-12-26T17:42:26.615Z,2.43
2022-12-26T17:44:54.854Z,2.57
2022-12-26T17:47:24.305Z,2.73
2022-12-26T17:49:53.660Z,3.00
2022-12-26T17:52:22.983Z,2.03
2022-12-26T17:54:51.792Z,2.63
2022-12-26T17:57:21.866Z,3.00
2022-12-26T17:59:52.051Z,4.50
2022-12-26T18:02:21.224Z,3.07
2022-12-26T18:04:50.094Z,3.20
2022-12-26T18:07:19.392Z,2.53
2022-12-26T18:09:47.961Z,2.30
2022-12-26T18:12:17.753Z,2.47
2022-12-26T18:14:46.140Z,2.63
2022-12-26T18:17:18.277Z,2.00
2022-12-26T18:19:46.810Z,2.40
2022-12-26T18:22:15.432Z,3.30
2022-12-26T18:24:43.655Z,2.90
2022-12-26T18:27:16.696Z,2.90
2022-12-26T18:29:45.064Z,2.83
2022-12-26T18:32:21.365Z,2.07
2022-12-26T18:34:49.773Z,3.43
2022-12-26T18:37:18.282Z,3.30
2022-12-26T18:39:46.845Z,3.67
2022-12-26T18:42:15.667Z,3.20
2022-12-26T18:44:44.749Z,3.70
2022-12-26T18:47:13.933Z,3.27
2022-12-26T18:49:43.715Z,3.60
2022-12-26T18:52:12.364Z,3.07
2022-12-26T18:54:45.759Z,3.87
2022-12-26T18:57:21.451Z,2.00
2022-12-26T18:59:49.851Z,3.03
2022-12-26T19:02:19.077Z,3.00
2022-12-26T19:04:49.265Z,4.10
2022-12-26T19:07:18.278Z,4.30
2022-12-26T19:09:46.982Z,4.77
2022-12-26T19:12:15.309Z,5.20
2022-12-26T19:14:43.521Z,4.47
2022-12-26T19:17:11.705Z,3.87
2022-12-26T19:19:40.005Z,3.10
2022-12-26T19:22:09.560Z,3.70
2022-12-26T19:24:37.860Z,2.70
2022-12-26T19:27:06.192Z,3.60
2022-12-26T19:29:34.435Z,3.10
2022-12-26T19:32:02.768Z,4.70
2022-12-26T19:34:31.339Z,4.20
2022-12-26T19:36:59.545Z,2.90
2022-12-26T19:39:29.514Z,3.30
2022-12-26T19:41:57.726Z,4.07
2022-12-26T19:44:25.956Z,3.40
2022-12-26T19:47:11.541Z,3.03
2022-12-26T19:49:41.129Z,3.13
2022-12-26T19:52:09.555Z,2.87
2022-12-26T19:54:39.221Z,2.40
2022-12-26T19:57:07.781Z,3.67
2022-12-26T19:59:36.030Z,2.53
2022-12-26T20:02:04.775Z,3.93
2022-12-26T20:04:33.099Z,2.53
2022-12-26T20:07:01.728Z,2.40
2022-12-26T20:09:30.105Z,4.20
2022-12-26T20:11:59.650Z,4.00
2022-12-26T20:14:28.435Z,3.00
2022-12-26T20:17:06.133Z,3.33
2022-12-26T20:19:34.881Z,3.40
2022-12-26T20:22:03.640Z,3.70
2022-12-26T20:24:31.905Z,4.27
2022-12-26T20:27:01.490Z,3.47
2022-12-26T20:29:29.689Z,4.03
2022-12-26T20:31:59.145Z,3.10
2022-12-26T20:34:27.457Z,3.80
2022-12-26T20:36:55.671Z,3.10
2022-12-26T20:39:25.493Z,3.33
2022-12-26T20:41:53.728Z,4.53
2022-12-26T20:44:24.505Z,3.00
2022-12-26T20:46:52.779Z,2.53
2022-12-26T20:49:21.054Z,2.90
2022-12-26T20:51:49.336Z,3.00
2022-12-26T20:54:17.937Z,3.70
2022-12-26T20:56:46.316Z,4.23
2022-12-26T20:59:14.684Z,3.07
2022-12-26T21:01:44.477Z,2.80
2022-12-26T21:04:17.641Z,3.57
2022-12-26T21:06:47.326Z,3.10
2022-12-26T21:09:15.663Z,2.97
2022-12-26T21:11:45.444Z,3.23
2022-12-26T21:14:14.773Z,3.13
2022-12-26T21:16:45.516Z,3.43
2022-12-26T21:19:15.622Z,3.70
2022-12-26T21:21:44.974Z,2.47
2022-12-26T21:24:15.515Z,3.27
2022-12-26T21:26:44.552Z,3.03
2022-12-26T21:29:14.116Z,3.60
2022-12-26T21:31:43.941Z,2.53
2022-12-26T21:34:13.415Z,3.20
2022-12-26T21:37:01.957Z,2.53
2022-12-26T21:39:30.222Z,3.00
2022-12-26T21:41:58.439Z,2.83
2022-12-26T21:44:26.656Z,2.97
2022-12-26T21:46:56.211Z,2.63
2022-12-26T21:49:24.526Z,3.00
2022-12-26T21:51:52.753Z,2.70
2022-12-26T21:54:43.453Z,3.43
2022-12-26T21:57:16.496Z,3.07
2022-12-26T21:59:56.889Z,2.93
2022-12-26T22:02:44.734Z,2.70
2022-12-26T22:05:13.299Z,2.80
2022-12-26T22:07:41.870Z,2.73
2022-12-26T22:10:30.420Z,4.17
2022-12-26T22:12:57.954Z,3.33
2022-12-26T22:15:43.870Z,2.80
2022-12-26T22:18:13.587Z,3.23
2022-12-26T22:20:44.528Z,2.83
2022-12-26T22:23:13.097Z,2.77
2022-12-26T22:25:41.281Z,3.07
2022-12-26T22:28:09.532Z,2.80
2022-12-26T22:30:37.765Z,2.33
2022-12-26T22:33:06.022Z,2.77
2022-12-26T22:35:35.672Z,2.90
2022-12-26T22:38:03.899Z,2.47
2022-12-26T22:40:32.165Z,3.00
2022-12-26T22:43:00.446Z,2.83
2022-12-26T22:45:28.854Z,3.17
2022-12-26T22:47:57.046Z,2.40
2022-12-26T22:50:25.368Z,2.90
2022-12-26T22:52:55.156Z,2.47
2022-12-26T22:55:23.317Z,2.97
2022-12-26T22:57:52.897Z,2.70
2022-12-26T23:00:22.032Z,2.70
2022-12-26T23:02:50.363Z,3.50
2022-12-26T23:05:18.969Z,2.40
2022-12-26T23:07:47.557Z,2.67
2022-12-26T23:10:20.562Z,3.30
2022-12-26T23:12:49.120Z,2.40
2022-12-26T23:15:18.576Z,2.80
2022-12-26T23:18:06.307Z,2.83
2022-12-26T23:20:54.724Z,2.40
2022-12-26T23:23:23.348Z,2.80
2022-12-26T23:25:53.160Z,2.30
2022-12-26T23:28:39.019Z,2.83
2022-12-26T23:31:07.259Z,2.83
2022-12-26T23:33:35.545Z,2.90
2022-12-26T23:36:03.877Z,2.40
2022-12-26T23:38:32.156Z,4.50
2022-12-26T23:41:01.737Z,3.43
2022-12-26T23:43:29.910Z,2.53
2022-12-26T23:45:58.198Z,3.13
2022-12-26T23:48:26.402Z,2.70
2022-12-26T23:51:02.545Z,2.50
2022-12-26T23:53:30.899Z,2.47
2022-12-26T23:55:59.498Z,2.43
2022-12-26T23:58:29.273Z,3.07
